createdAt,value
2018-08-14T00:01:17.302Z,63.90
2018-08-14T00:03:45.461Z,61.60
2018-08-14T00:06:15.369Z,67.62
2018-08-14T00:08:44.156Z,61.10
2018-08-14T00:11:12.410Z,64.03
2018-08-14T00:13:41.229Z,58.87
2018-08-14T00:16:11.188Z,56.23
2018-08-14T00:18:39.850Z,65.08
2018-08-14T00:21:08.439Z,63.35
2018-08-14T00:23:37.489Z,58.38
2018-08-14T00:26:06.165Z,55.12
2018-08-14T00:28:34.978Z,60.65
2018-08-14T00:31:03.781Z,62.33
2018-08-14T00:33:31.964Z,58.87
2018-08-14T00:36:00.969Z,65.47
2018-08-14T00:38:29.252Z,63.13
2018-08-14T00:40:59.194Z,64.75
2018-08-14T00:43:28.457Z,55.80
2018-08-14T00:45:58.022Z,63.65
2018-08-14T00:48:26.567Z,60.35
2018-08-14T00:50:55.102Z,55.48
2018-08-14T00:53:23.401Z,60.95
2018-08-14T00:55:53.177Z,59.65
2018-08-14T00:58:21.245Z,60.63
2018-08-14T01:00:50.537Z,68.67
2018-08-14T01:03:19.218Z,65.30
2018-08-14T01:05:47.840Z,59.85
2018-08-14T01:08:17.144Z,60.90
2018-08-14T01:10:46.178Z,59.70
2018-08-14T01:13:14.457Z,69.15
2018-08-14T01:15:43.481Z,64.20
2018-08-14T01:18:12.546Z,69.80
2018-08-14T01:20:47.773Z,64.00
2018-08-14T01:23:16.769Z,61.48
2018-08-14T01:25:46.286Z,64.75
2018-08-14T01:28:14.515Z,63.28
2018-08-14T01:30:43.509Z,69.85
2018-08-14T01:33:12.311Z,69.53
2018-08-14T01:35:40.914Z,61.45
2018-08-14T01:38:09.467Z,61.53
2018-08-14T01:40:38.913Z,65.37
2018-08-14T01:43:07.933Z,70.03
2018-08-14T01:45:36.269Z,62.60
2018-08-14T01:48:05.854Z,64.53
2018-08-14T01:50:34.321Z,62.08
2018-08-14T01:53:03.536Z,61.65
2018-08-14T01:55:31.713Z,62.60
2018-08-14T01:58:00.745Z,63.68
2018-08-14T02:00:28.893Z,56.92
2018-08-14T02:02:58.341Z,65.12
2018-08-14T02:05:27.753Z,54.95
2018-08-14T02:07:56.826Z,59.45
2018-08-14T02:10:25.154Z,62.45
2018-08-14T02:12:54.305Z,52.30
2018-08-14T02:15:22.593Z,56.53
2018-08-14T02:17:50.730Z,57.70
2018-08-14T02:20:23.471Z,53.63
2018-08-14T02:22:53.547Z,57.85
2018-08-14T02:25:22.192Z,55.40
2018-08-14T02:27:51.514Z,58.48
2018-08-14T02:30:19.673Z,56.53
2018-08-14T02:32:48.641Z,56.80
2018-08-14T02:35:17.260Z,54.23
2018-08-14T02:37:46.124Z,50.25
2018-08-14T02:40:23.157Z,55.12
2018-08-14T02:42:51.661Z,53.45
2018-08-14T02:45:21.869Z,51.92
2018-08-14T02:47:50.269Z,52.50
2018-08-14T02:50:19.221Z,52.75
2018-08-14T02:52:48.557Z,49.27
2018-08-14T02:55:21.168Z,50.30
2018-08-14T02:57:49.640Z,43.25
2018-08-14T03:00:20.210Z,43.90
2018-08-14T03:02:48.934Z,45.55
2018-08-14T03:05:17.113Z,40.30
2018-08-14T03:07:47.142Z,44.98
2018-08-14T03:10:15.661Z,42.50
2018-08-14T03:12:45.389Z,50.08
2018-08-14T03:15:16.205Z,50.05
2018-08-14T03:17:45.054Z,49.20
2018-08-14T03:20:13.305Z,48.35
2018-08-14T03:22:41.850Z,52.23
2018-08-14T03:25:10.443Z,49.45
2018-08-14T03:27:38.998Z,53.80
2018-08-14T03:30:08.317Z,57.78
2018-08-14T03:32:36.853Z,52.15
2018-08-14T03:35:06.313Z,52.62
2018-08-14T03:37:34.601Z,54.00
2018-08-14T03:40:03.156Z,59.18
2018-08-14T03:42:32.337Z,52.25
2018-08-14T03:45:01.012Z,59.13
2018-08-14T03:47:29.260Z,55.95
2018-08-14T03:49:58.022Z,57.75
2018-08-14T03:52:26.101Z,52.13
2018-08-14T03:54:54.541Z,53.20
2018-08-14T03:57:23.717Z,53.35
2018-08-14T03:59:51.966Z,55.00
2018-08-14T04:02:20.185Z,56.28
2018-08-14T04:04:48.461Z,56.53
2018-08-14T04:07:17.911Z,53.75
2018-08-14T04:09:46.720Z,53.52
2018-08-14T04:12:16.265Z,52.85
2018-08-14T04:14:44.616Z,58.65
2018-08-14T04:17:14.927Z,52.38
2018-08-14T04:19:44.287Z,55.28
2018-08-14T04:22:12.714Z,54.95
2018-08-14T04:24:42.228Z,59.10
2018-08-14T04:27:10.721Z,50.75
2018-08-14T04:29:38.917Z,54.25
2018-08-14T04:32:07.708Z,56.20
2018-08-14T04:34:36.508Z,54.75
2018-08-14T04:37:06.621Z,56.45
2018-08-14T04:39:36.124Z,57.75
2018-08-14T04:42:05.680Z,52.73
2018-08-14T04:44:34.607Z,48.42
2018-08-14T04:47:02.704Z,50.90
2018-08-14T04:49:30.908Z,45.23
2018-08-14T04:51:59.637Z,51.92
2018-08-14T04:54:28.071Z,53.70
2018-08-14T04:56:56.911Z,46.23
2018-08-14T04:59:26.292Z,41.65
2018-08-14T05:01:56.170Z,46.33
2018-08-14T05:04:25.357Z,46.60
2018-08-14T05:06:54.090Z,42.98
2018-08-14T05:09:22.922Z,43.52
2018-08-14T05:11:51.533Z,43.15
2018-08-14T05:14:20.289Z,36.88
2018-08-14T05:16:49.129Z,43.05
2018-08-14T05:19:17.487Z,39.55
2018-08-14T05:21:48.376Z,37.35
2018-08-14T05:24:17.753Z,41.83
2018-08-14T05:26:46.417Z,39.30
2018-08-14T05:29:15.638Z,35.40
2018-08-14T05:31:44.401Z,40.10
2018-08-14T05:34:13.152Z,37.33
2018-08-14T05:36:42.009Z,35.45
2018-08-14T05:39:12.054Z,37.85
2018-08-14T05:41:41.281Z,35.15
2018-08-14T05:44:21.422Z,35.25
2018-08-14T05:46:50.147Z,30.65
2018-08-14T05:49:18.491Z,31.50
2018-08-14T05:51:47.354Z,37.35
2018-08-14T05:54:16.199Z,35.30
2018-08-14T05:56:45.638Z,34.15
2018-08-14T05:59:13.950Z,33.92
2018-08-14T06:01:43.654Z,34.58
2018-08-14T06:04:13.062Z,28.23
2018-08-14T06:06:42.210Z,31.40
2018-08-14T06:09:11.655Z,28.10
2018-08-14T06:11:40.477Z,31.87
2018-08-14T06:14:09.529Z,29.70
2018-08-14T06:16:38.583Z,30.17
2018-08-14T06:19:07.621Z,29.15
2018-08-14T06:21:36.364Z,26.27
2018-08-14T06:24:05.693Z,25.45
2018-08-14T06:26:34.682Z,23.55
2018-08-14T06:29:03.936Z,25.00
2018-08-14T06:31:32.673Z,21.23
2018-08-14T06:34:00.801Z,24.63
2018-08-14T06:36:29.057Z,21.40
2018-08-14T06:38:57.909Z,20.92
2018-08-14T06:41:26.741Z,23.05
2018-08-14T06:43:55.154Z,17.37
2018-08-14T06:46:23.804Z,20.45
2018-08-14T06:48:52.575Z,17.27
2018-08-14T06:51:21.486Z,20.15
2018-08-14T06:53:49.756Z,19.57
2018-08-14T06:56:18.717Z,20.02
2018-08-14T06:58:47.728Z,17.37
2018-08-14T07:01:15.936Z,19.45
2018-08-14T07:03:45.582Z,20.45
2018-08-14T07:06:15.629Z,18.27
2018-08-14T07:08:43.834Z,19.00
2018-08-14T07:11:11.972Z,19.17
2018-08-14T07:13:40.758Z,19.35
2018-08-14T07:16:10.602Z,20.25
2018-08-14T07:18:39.405Z,18.67
2018-08-14T07:21:07.777Z,20.70
2018-08-14T07:25:55.598Z,17.85
2018-08-14T07:28:24.303Z,19.93
2018-08-14T07:30:53.083Z,17.37
2018-08-14T07:33:21.487Z,17.07
2018-08-14T07:35:50.522Z,14.75
2018-08-14T07:38:19.043Z,12.60
2018-08-14T07:40:47.505Z,15.75
2018-08-14T07:43:16.893Z,15.08
2018-08-14T07:45:45.399Z,14.58
2018-08-14T07:48:14.910Z,12.75
2018-08-14T07:50:44.480Z,12.95
2018-08-14T07:53:14.996Z,14.55
2018-08-14T07:55:44.594Z,12.33
2018-08-14T07:58:14.825Z,14.53
2018-08-14T08:00:46.647Z,12.50
2018-08-14T08:03:16.440Z,13.75
2018-08-14T08:05:52.898Z,11.93
2018-08-14T08:08:21.287Z,11.68
2018-08-14T08:10:50.638Z,13.00
2018-08-14T08:13:19.910Z,9.63
2018-08-14T08:15:48.280Z,8.90
2018-08-14T08:18:17.544Z,9.35
2018-08-14T08:20:46.981Z,9.90
2018-08-14T08:23:15.298Z,9.28
2018-08-14T08:25:43.899Z,10.78
2018-08-14T08:28:18.688Z,10.38
2018-08-14T08:30:47.042Z,10.20
2018-08-14T08:33:19.096Z,9.10
2018-08-14T08:35:47.450Z,8.90
2018-08-14T08:38:20.144Z,8.10
2018-08-14T08:40:48.704Z,7.78
2018-08-14T08:43:19.351Z,6.62
2018-08-14T08:45:47.828Z,7.47
2018-08-14T08:48:22.333Z,5.83
2018-08-14T08:50:54.403Z,5.50
2018-08-14T08:53:24.874Z,5.78
2018-08-14T08:55:54.542Z,5.08
2018-08-14T08:58:25.039Z,5.47
2018-08-14T09:01:00.152Z,5.72
2018-08-14T09:03:30.816Z,4.72
2018-08-14T09:05:59.255Z,4.92
2018-08-14T09:08:28.374Z,4.78
2018-08-14T09:10:58.035Z,4.62
2018-08-14T09:13:29.240Z,3.40
2018-08-14T09:16:09.742Z,3.35
2018-08-14T09:19:00.774Z,3.60
2018-08-14T09:21:31.473Z,3.90
2018-08-14T09:24:00.269Z,3.75
2018-08-14T09:26:31.140Z,4.20
2018-08-14T09:29:00.788Z,6.12
2018-08-14T09:31:29.366Z,5.47
2018-08-14T09:34:15.435Z,6.20
2018-08-14T09:39:23.970Z,5.70
2018-08-14T09:41:52.293Z,6.87
2018-08-14T09:44:20.461Z,6.05
2018-08-14T09:46:48.617Z,5.50
2018-08-14T09:49:16.785Z,4.55
2018-08-14T09:51:44.857Z,4.08
2018-08-14T09:54:13.035Z,3.40
2018-08-14T09:56:41.293Z,3.90
2018-08-14T09:59:09.544Z,4.10
2018-08-14T10:01:43.248Z,4.15
2018-08-14T10:04:16.943Z,3.90
2018-08-14T10:06:50.738Z,3.17
2018-08-14T10:09:18.914Z,3.92
2018-08-14T10:11:47.038Z,3.95
2018-08-14T10:14:15.245Z,3.40
2018-08-14T10:16:44.588Z,3.90
2018-08-14T10:19:13.188Z,3.50
2018-08-14T10:21:43.625Z,4.00
2018-08-14T10:24:11.798Z,3.60
2018-08-14T10:26:39.992Z,3.85
2018-08-14T10:29:08.218Z,4.50
2018-08-14T10:31:37.171Z,4.37
2018-08-14T10:34:05.344Z,4.53
2018-08-14T10:36:33.491Z,4.22
2018-08-14T10:39:01.739Z,4.45
2018-08-14T10:41:30.078Z,4.17
2018-08-14T10:43:58.245Z,3.85
2018-08-14T10:46:26.637Z,4.00
2018-08-14T10:48:54.789Z,4.40
2018-08-14T10:51:23.158Z,4.33
2018-08-14T10:53:51.354Z,4.58
2018-08-14T10:56:19.516Z,5.45
2018-08-14T10:58:47.771Z,4.92
2018-08-14T11:01:16.162Z,4.45
2018-08-14T11:03:44.368Z,4.15
2018-08-14T11:06:12.559Z,4.75
2018-08-14T11:08:40.917Z,5.35
2018-08-14T11:11:14.113Z,3.80
2018-08-14T11:13:42.257Z,4.00
2018-08-14T11:16:10.466Z,4.00
2018-08-14T11:18:38.757Z,4.00
2018-08-14T11:21:07.141Z,4.03
2018-08-14T11:23:35.263Z,3.60
2018-08-14T11:26:04.314Z,4.33
2018-08-14T11:28:32.597Z,4.33
2018-08-14T11:31:00.785Z,3.98
2018-08-14T11:33:28.998Z,3.58
2018-08-14T11:36:02.697Z,3.50
2018-08-14T11:38:32.694Z,3.50
2018-08-14T11:41:01.145Z,4.00
2018-08-14T11:43:29.348Z,3.80
2018-08-14T11:45:58.070Z,3.22
2018-08-14T11:48:26.285Z,2.80
2018-08-14T11:50:55.074Z,3.10
2018-08-14T11:53:23.391Z,2.90
2018-08-14T11:55:52.418Z,2.42
2018-08-14T11:58:20.615Z,2.20
2018-08-14T12:00:48.749Z,1.80
2018-08-14T12:03:17.413Z,1.90
2018-08-14T12:05:46.098Z,1.90
2018-08-14T12:08:14.364Z,2.27
2018-08-14T12:10:42.599Z,2.10
2018-08-14T12:13:10.765Z,1.92
2018-08-14T12:15:38.941Z,2.30
2018-08-14T12:18:07.938Z,2.40
2018-08-14T12:20:36.106Z,2.02
2018-08-14T12:23:04.340Z,2.20
2018-08-14T12:25:32.580Z,1.77
2018-08-14T12:28:01.115Z,1.22
2018-08-14T12:30:29.313Z,1.02
2018-08-14T12:32:57.613Z,1.00
2018-08-14T12:35:25.813Z,0.90
2018-08-14T12:37:55.057Z,0.90
2018-08-14T12:40:23.270Z,0.80
2018-08-14T12:42:51.674Z,1.25
2018-08-14T12:45:22.258Z,1.10
2018-08-14T12:47:51.469Z,1.25
2018-08-14T12:50:20.503Z,1.60
2018-08-14T12:52:49.171Z,1.42
2018-08-14T12:55:18.004Z,1.20
2018-08-14T12:57:46.927Z,1.90
2018-08-14T13:00:22.887Z,1.27
2018-08-14T13:02:51.777Z,1.52
2018-08-14T13:05:20.309Z,1.10
2018-08-14T13:07:48.525Z,1.75
2018-08-14T13:10:16.730Z,2.02
2018-08-14T13:12:44.945Z,2.58
2018-08-14T13:15:14.178Z,2.50
2018-08-14T13:17:45.817Z,2.30
2018-08-14T13:20:14.078Z,2.40
2018-08-14T13:22:42.365Z,2.95
2018-08-14T13:25:11.369Z,1.90
2018-08-14T13:27:39.619Z,2.02
2018-08-14T13:30:11.301Z,2.30
2018-08-14T13:32:39.710Z,1.92
2018-08-14T13:35:08.429Z,2.17
2018-08-14T13:37:36.777Z,2.10
2018-08-14T13:40:06.038Z,2.45
2018-08-14T13:42:34.218Z,3.17
2018-08-14T13:45:02.813Z,4.03
2018-08-14T13:47:30.985Z,3.90
2018-08-14T13:49:59.157Z,4.10
2018-08-14T13:52:27.633Z,4.03
2018-08-14T13:54:56.629Z,3.47
2018-08-14T13:57:24.903Z,4.10
2018-08-14T13:59:53.081Z,4.67
2018-08-14T14:02:21.445Z,5.20
2018-08-14T14:04:49.793Z,3.87
2018-08-14T14:07:17.970Z,3.10
2018-08-14T14:09:46.800Z,4.20
2018-08-14T14:12:15.082Z,4.85
2018-08-14T14:14:44.061Z,3.98
2018-08-14T14:17:12.463Z,3.62
2018-08-14T14:19:41.079Z,4.03
2018-08-14T14:22:09.546Z,3.35
2018-08-14T14:24:38.181Z,4.10
2018-08-14T14:27:06.437Z,4.12
2018-08-14T14:29:34.765Z,6.30
2018-08-14T14:32:03.926Z,3.87
2018-08-14T14:34:33.140Z,4.65
2018-08-14T14:37:01.874Z,3.75
2018-08-14T14:39:30.858Z,4.12
2018-08-14T14:41:59.293Z,4.10
2018-08-14T14:44:28.242Z,3.98
2018-08-14T14:46:56.433Z,3.58
2018-08-14T14:49:25.341Z,3.27
2018-08-14T14:51:53.823Z,3.20
2018-08-14T14:54:21.941Z,3.10
2018-08-14T14:56:51.643Z,4.10
2018-08-14T14:59:20.002Z,3.12
2018-08-14T15:01:48.209Z,3.10
2018-08-14T15:04:17.074Z,3.15
2018-08-14T15:06:45.893Z,3.02
2018-08-14T15:09:14.121Z,3.98
2018-08-14T15:11:42.355Z,3.50
2018-08-14T15:14:10.910Z,2.72
2018-08-14T15:16:38.993Z,2.67
2018-08-14T15:19:16.611Z,3.10
2018-08-14T15:21:45.419Z,2.62
2018-08-14T15:24:13.545Z,2.98
2018-08-14T15:26:43.509Z,3.08
2018-08-14T15:29:12.916Z,2.67
2018-08-14T15:31:43.021Z,2.40
2018-08-14T15:34:12.682Z,2.55
2018-08-14T15:36:42.530Z,2.40
2018-08-14T15:39:12.733Z,2.80
2018-08-14T15:41:42.466Z,2.45
2018-08-14T15:44:11.138Z,2.30
2018-08-14T15:46:39.411Z,2.20
2018-08-14T15:49:09.047Z,1.35
2018-08-14T15:51:38.224Z,1.60
2018-08-14T15:54:08.413Z,1.30
2018-08-14T15:56:36.681Z,2.02
2018-08-14T15:59:05.021Z,1.32
2018-08-14T16:01:34.381Z,1.22
2018-08-14T16:04:03.443Z,1.10
2018-08-14T16:06:32.824Z,1.42
2018-08-14T16:09:01.853Z,1.52
2018-08-14T16:11:30.289Z,1.50
2018-08-14T16:13:58.753Z,2.42
2018-08-14T16:16:28.905Z,1.65
2018-08-14T16:18:57.869Z,1.45
2018-08-14T16:21:27.402Z,1.50
2018-08-14T16:23:56.474Z,1.50
2018-08-14T16:26:25.653Z,1.45
2018-08-14T16:28:54.334Z,1.30
2018-08-14T16:31:22.999Z,1.67
2018-08-14T16:33:51.961Z,1.87
2018-08-14T16:36:20.486Z,1.37
2018-08-14T16:38:49.402Z,2.55
2018-08-14T16:41:17.866Z,1.37
2018-08-14T16:43:46.858Z,1.40
2018-08-14T16:46:16.697Z,1.47
2018-08-14T16:48:45.545Z,1.10
2018-08-14T16:51:15.596Z,1.20
2018-08-14T16:53:48.275Z,1.30
2018-08-14T16:56:16.609Z,1.05
2018-08-14T16:58:44.813Z,1.00
2018-08-14T17:01:13.553Z,1.20
2018-08-14T17:03:42.170Z,3.05
2018-08-14T17:06:10.730Z,1.30
2018-08-14T17:08:39.479Z,1.65
2018-08-14T17:11:08.410Z,0.90
2018-08-14T17:13:36.592Z,1.27
2018-08-14T17:16:05.098Z,1.25
2018-08-14T17:18:33.518Z,1.15
2018-08-14T17:21:00.671Z,0.78
2018-08-14T17:23:29.085Z,1.27
2018-08-14T17:25:58.058Z,0.98
2018-08-14T17:28:26.822Z,1.05
2018-08-14T17:30:55.553Z,1.67
2018-08-14T17:33:24.869Z,0.98
2018-08-14T17:35:53.601Z,2.05
2018-08-14T17:38:22.035Z,1.27
2018-08-14T17:40:52.146Z,1.72
2018-08-14T17:43:20.406Z,1.35
2018-08-14T17:45:48.779Z,1.98
2018-08-14T17:48:17.449Z,1.10
2018-08-14T17:50:46.444Z,1.20
2018-08-14T17:53:15.044Z,1.25
2018-08-14T17:55:44.412Z,2.92
2018-08-14T17:58:12.862Z,3.52
2018-08-14T18:00:40.990Z,2.30
2018-08-14T18:03:10.789Z,1.25
2018-08-14T18:05:39.586Z,1.30
2018-08-14T18:08:09.165Z,1.72
2018-08-14T18:10:37.436Z,2.05
2018-08-14T18:13:05.851Z,1.07
2018-08-14T18:15:34.837Z,2.95
2018-08-14T18:18:04.182Z,2.12
2018-08-14T18:20:32.641Z,2.60
2018-08-14T18:23:01.859Z,1.10
2018-08-14T18:25:31.113Z,1.72
2018-08-14T18:27:59.463Z,1.70
2018-08-14T18:30:27.810Z,1.20
2018-08-14T18:32:56.570Z,1.35
2018-08-14T18:35:24.855Z,1.02
2018-08-14T18:37:53.089Z,1.80
2018-08-14T18:40:22.936Z,1.50
2018-08-14T18:42:51.294Z,1.05
2018-08-14T18:45:21.133Z,1.10
2018-08-14T18:47:49.480Z,2.83
2018-08-14T18:50:18.459Z,2.12
2018-08-14T18:52:47.194Z,1.42
2018-08-14T18:55:17.572Z,2.60
2018-08-14T18:57:47.075Z,0.95
2018-08-14T19:00:21.063Z,0.98
2018-08-14T19:02:52.406Z,3.50
2018-08-14T19:05:22.204Z,2.52
2018-08-14T19:07:51.230Z,1.15
2018-08-14T19:10:20.741Z,1.15
2018-08-14T19:12:50.010Z,1.10
2018-08-14T19:15:24.577Z,1.30
2018-08-14T19:17:52.793Z,1.77
2018-08-14T19:20:21.060Z,1.52
2018-08-14T19:22:49.973Z,1.95
2018-08-14T19:25:18.174Z,4.15
2018-08-14T19:27:47.158Z,1.10
2018-08-14T19:30:16.102Z,3.10
2018-08-14T19:32:44.533Z,1.20
2018-08-14T19:35:14.027Z,1.10
2018-08-14T19:37:42.592Z,1.55
2018-08-14T19:40:14.234Z,1.40
2018-08-14T19:42:42.486Z,1.80
2018-08-14T19:45:12.073Z,1.17
2018-08-14T19:47:41.267Z,1.87
2018-08-14T19:50:11.049Z,4.03
2018-08-14T19:52:39.463Z,2.40
2018-08-14T19:55:10.555Z,5.08
2018-08-14T19:57:39.533Z,2.08
2018-08-14T20:00:10.097Z,1.32
2018-08-14T20:02:38.776Z,3.05
2018-08-14T20:05:09.310Z,2.37
2018-08-14T20:07:37.555Z,1.87
2018-08-14T20:10:08.241Z,4.95
2018-08-14T20:12:37.314Z,1.55
2018-08-14T20:15:07.478Z,2.85
2018-08-14T20:17:35.710Z,1.20
2018-08-14T20:20:05.086Z,1.62
2018-08-14T20:22:33.913Z,1.77
2018-08-14T20:25:02.939Z,3.33
2018-08-14T20:27:31.165Z,2.25
2018-08-14T20:29:59.742Z,3.27
2018-08-14T20:32:29.155Z,3.65
2018-08-14T20:34:58.081Z,2.25
2018-08-14T20:37:27.077Z,3.47
2018-08-14T20:39:56.246Z,2.27
2018-08-14T20:42:25.113Z,3.25
2018-08-14T20:44:53.958Z,2.60
2018-08-14T20:47:22.120Z,3.30
2018-08-14T20:49:51.539Z,2.35
2018-08-14T20:52:21.338Z,3.20
2018-08-14T20:54:50.989Z,2.00
2018-08-14T20:57:20.398Z,3.95
2018-08-14T20:59:48.971Z,4.78
2018-08-14T21:02:19.197Z,2.20
2018-08-14T21:04:47.801Z,4.03
2018-08-14T21:07:16.020Z,5.85
2018-08-14T21:09:44.352Z,2.17
2018-08-14T21:12:12.840Z,2.17
2018-08-14T21:14:41.070Z,2.25
2018-08-14T21:17:09.721Z,3.12
2018-08-14T21:19:38.875Z,1.80
2018-08-14T21:22:07.662Z,2.50
2018-08-14T21:24:35.822Z,2.58
2018-08-14T21:27:04.613Z,2.05
2018-08-14T21:29:34.011Z,2.85
2018-08-14T21:32:02.333Z,2.55
2018-08-14T21:34:30.567Z,2.15
2018-08-14T21:37:00.167Z,4.45
2018-08-14T21:39:28.329Z,1.55
2018-08-14T21:41:57.129Z,2.98
2018-08-14T21:44:25.557Z,2.25
2018-08-14T21:46:54.280Z,2.70
2018-08-14T21:49:23.071Z,3.12
2018-08-14T21:51:51.854Z,4.72
2018-08-14T21:54:20.082Z,2.65
2018-08-14T21:56:48.251Z,2.55
2018-08-14T21:59:18.159Z,2.05
2018-08-14T22:01:46.911Z,2.52
2018-08-14T22:04:15.075Z,2.12
2018-08-14T22:06:44.046Z,3.67
2018-08-14T22:09:12.862Z,3.20
2018-08-14T22:11:41.981Z,2.65
2018-08-14T22:14:11.029Z,2.05
2018-08-14T22:16:39.872Z,2.20
2018-08-14T22:19:08.165Z,2.02
2018-08-14T22:21:36.303Z,3.40
2018-08-14T22:24:05.657Z,3.10
2018-08-14T22:26:34.185Z,2.85
2018-08-14T22:29:03.093Z,2.12
2018-08-14T22:31:31.755Z,2.05
2018-08-14T22:34:00.293Z,2.05
2018-08-14T22:36:29.104Z,2.40
2018-08-14T22:38:58.378Z,4.72
2018-08-14T22:41:27.233Z,2.00
2018-08-14T22:43:57.357Z,2.35
2018-08-14T22:46:26.128Z,2.20
2018-08-14T22:48:55.077Z,2.52
2018-08-14T22:51:24.608Z,2.33
2018-08-14T22:53:53.312Z,2.72
2018-08-14T22:56:22.105Z,2.47
2018-08-14T22:58:50.994Z,3.42
2018-08-14T23:01:19.694Z,5.37
2018-08-14T23:03:48.969Z,3.20
2018-08-14T23:06:18.618Z,3.05
2018-08-14T23:08:47.540Z,3.67
2018-08-14T23:11:16.181Z,3.85
2018-08-14T23:13:44.710Z,1.70
2018-08-14T23:16:12.876Z,2.10
2018-08-14T23:18:42.952Z,1.82
2018-08-14T23:21:11.418Z,3.50
2018-08-14T23:23:40.181Z,2.30
2018-08-14T23:26:08.779Z,2.08
2018-08-14T23:28:36.826Z,2.37
2018-08-14T23:31:05.894Z,1.98
2018-08-14T23:33:34.099Z,2.62
2018-08-14T23:36:02.212Z,1.77
2018-08-14T23:38:31.236Z,1.85
2018-08-14T23:40:59.901Z,2.17
2018-08-14T23:43:28.902Z,2.60
2018-08-14T23:45:58.250Z,3.08
2018-08-14T23:48:27.556Z,2.27
2018-08-14T23:50:56.673Z,1.45
2018-08-14T23:53:26.221Z,2.90
2018-08-14T23:55:54.910Z,2.15
2018-08-14T23:58:23.482Z,1.70
